Terminal Aerodrome Forecast
Issued by NWS Caribou, ME

Home | Current Version | Previous Version | Text Only | Print | Product List | Glossary On
Versions: 1 2 3 4 5 6 7 8 9 10 11 12 13 14 15 16
000
FTUS41 KCAR 200809 AAB
TAFCAR
TAF AMD
KCAR 200809Z 2008/2106 21004KT P6SM OVC040
      TEMPO 2008/2009 3SM -SN OVC025
     FM201000 VRB03KT 5SM -SNPL OVC025
     FM201400 03005KT 5SM -FZRAPL OVC020
     FM201700 05005KT 5SM -RAPL OVC015
     FM202200 08005KT 3SM -FZRAPL OVC012=

USA.gov is the U.S. government's official web portal to all federal, state and local government web resources and services.